Time;durP1;ratioP1;P1;durP2;ratioP2;P2;SDS_P1;SDS_P2;PMS_P1;PMS_P2;Temp;Humidity;BMP_temperature;BMP_pressure;BME280_temperature;BME280_humidity;BME280_pressure;Samples;Min_cycle;Max_cycle;Signal;HPM_P1;HPM_P2
2022/07/14 00:01:19;;;;;;;3.80;1.15;;;22.20;92.50;;;;;;5071477;28;20080;-65
2022/07/14 00:03:46;;;;;;;3.17;1.48;;;22.20;92.50;;;;;;5071101;28;20127;-65
2022/07/14 00:06:12;;;;;;;2.80;0.90;;;22.20;92.50;;;;;;5070574;28;20359;-65
2022/07/14 00:08:38;;;;;;;0.93;0.90;;;22.20;92.50;;;;;;5070183;28;20045;-65
2022/07/14 00:11:04;;;;;;;2.72;1.20;;;22.20;92.50;;;;;;5071136;28;20051;-65
2022/07/14 00:13:30;;;;;;;2.47;0.98;;;22.20;92.40;;;;;;5070968;28;20050;-59
2022/07/14 00:15:56;;;;;;;1.58;1.00;;;22.20;92.40;;;;;;5071178;28;20037;-65
2022/07/14 00:18:22;;;;;;;1.40;0.93;;;22.20;92.40;;;;;;5071400;28;20044;-65
2022/07/14 00:20:48;;;;;;;1.45;1.00;;;22.20;92.40;;;;;;5069925;28;20052;-63
2022/07/14 00:23:14;;;;;;;3.58;1.38;;;22.20;92.50;;;;;;5070217;28;20056;-65
2022/07/14 00:25:39;;;;;;;2.90;0.95;;;22.20;92.40;;;;;;5070368;28;20068;-65
2022/07/14 00:28:05;;;;;;;1.70;0.95;;;22.20;92.50;;;;;;5070046;28;20662;-65
2022/07/14 00:30:31;;;;;;;1.02;0.80;;;22.20;92.40;;;;;;5068830;28;20040;-59
2022/07/14 00:32:56;;;;;;;0.77;0.77;;;22.20;92.50;;;;;;5070989;28;20044;-63
2022/07/14 00:35:22;;;;;;;2.33;0.82;;;22.20;92.50;;;;;;5068407;28;20044;-65
2022/07/14 00:37:48;;;;;;;1.45;1.02;;;22.20;92.50;;;;;;5069923;28;20047;-61
2022/07/14 00:40:13;;;;;;;0.82;0.80;;;22.20;92.50;;;;;;5069179;28;20109;-65
2022/07/14 00:42:46;;;;;;;1.95;0.90;;;22.20;92.50;;;;;;5069433;28;20127;-66
2022/07/14 00:45:14;;;;;;;2.25;0.90;;;22.20;92.40;;;;;;5069384;28;20094;-65
2022/07/14 00:47:41;;;;;;;1.80;0.80;;;22.20;92.50;;;;;;5069255;28;20044;-65
2022/07/14 00:50:09;;;;;;;1.75;1.00;;;22.20;92.50;;;;;;5067320;28;20059;-62
2022/07/14 00:52:35;;;;;;;1.15;0.80;;;22.20;92.50;;;;;;5069069;28;20488;-65
2022/07/14 00:55:01;;;;;;;1.95;0.70;;;22.20;92.50;;;;;;5068103;28;20041;-66
2022/07/14 00:57:27;;;;;;;0.70;0.70;;;22.20;92.50;;;;;;5069381;28;20041;-64
2022/07/14 00:59:53;;;;;;;2.60;0.90;;;22.20;92.50;;;;;;5068870;28;20048;-65
2022/07/14 01:02:19;;;;;;;0.80;0.60;;;22.20;92.80;;;;;;5069146;28;20080;-66
2022/07/14 01:04:47;;;;;;;2.78;0.80;;;22.20;92.50;;;;;;5068382;28;20055;-65
2022/07/14 01:07:14;;;;;;;1.05;0.85;;;22.10;92.50;;;;;;5059502;28;20073;-65
2022/07/14 01:09:41;;;;;;;1.08;0.90;;;22.20;92.50;;;;;;5047586;28;20052;-64
2022/07/14 01:12:07;;;;;;;2.85;0.70;;;22.20;92.80;;;;;;5049129;28;20128;-64
2022/07/14 01:14:35;;;;;;;2.13;0.80;;;22.20;92.50;;;;;;5048089;28;20561;-62
2022/07/14 01:17:01;;;;;;;2.17;0.88;;;22.10;92.50;;;;;;5060945;28;20151;-65
2022/07/14 01:19:26;;;;;;;0.82;0.82;;;22.10;92.50;;;;;;5069166;28;20127;-65
2022/07/14 01:21:53;;;;;;;0.98;0.90;;;22.10;92.50;;;;;;5065703;28;20040;-65
2022/07/14 01:24:20;;;;;;;4.97;0.98;;;22.10;92.50;;;;;;5067741;28;20083;-62
2022/07/14 01:26:46;;;;;;;1.73;0.63;;;22.10;92.50;;;;;;5068785;28;20047;-63
2022/07/14 01:29:11;;;;;;;1.25;1.02;;;22.10;92.50;;;;;;5069037;28;20465;-66
2022/07/14 01:31:37;;;;;;;0.95;0.80;;;22.10;92.50;;;;;;5068509;28;20423;-64
2022/07/14 01:34:03;;;;;;;1.15;0.80;;;22.10;92.50;;;;;;5068931;28;20059;-66
2022/07/14 01:36:29;;;;;;;1.55;0.90;;;22.10;92.50;;;;;;5069158;28;20473;-65
2022/07/14 01:38:54;;;;;;;1.75;0.85;;;22.10;92.50;;;;;;5071675;28;20054;-65
2022/07/14 01:41:21;;;;;;;2.55;0.80;;;22.10;92.50;;;;;;5073161;28;20044;-65
2022/07/14 01:43:48;;;;;;;1.23;0.85;;;22.10;92.50;;;;;;5072684;28;20052;-66
2022/07/14 01:46:14;;;;;;;1.48;0.70;;;22.10;92.50;;;;;;5072281;28;20043;-64
2022/07/14 01:48:39;;;;;;;0.93;0.80;;;22.10;92.50;;;;;;5072377;28;20044;-65
2022/07/14 01:51:05;;;;;;;1.20;0.70;;;22.10;92.50;;;;;;5071825;28;20051;-65
2022/07/14 01:53:31;;;;;;;1.15;0.80;;;22.10;92.50;;;;;;5072045;28;20049;-64
2022/07/14 01:55:58;;;;;;;3.17;1.10;;;22.10;92.50;;;;;;5072325;28;20040;-65
2022/07/14 01:58:24;;;;;;;1.02;0.77;;;22.10;92.50;;;;;;5073578;28;20044;-65
2022/07/14 02:03:35;;;;;;;0.98;0.88;;;22.10;92.50;;;;;;5073480;28;20389;-65
2022/07/14 02:06:01;;;;;;;1.65;0.80;;;22.10;92.50;;;;;;5071655;28;20134;-66
2022/07/14 02:08:27;;;;;;;0.77;0.73;;;22.10;92.50;;;;;;5072327;28;20048;-66
2022/07/14 02:13:37;;;;;;;1.30;0.90;;;22.10;92.50;;;;;;5073098;28;20055;-60
2022/07/14 02:16:03;;;;;;;1.27;0.65;;;22.00;92.50;;;;;;5072665;28;20048;-65
2022/07/14 02:18:29;;;;;;;0.65;0.65;;;22.00;92.50;;;;;;5073135;28;20055;-64
2022/07/14 02:20:55;;;;;;;2.08;0.80;;;22.00;92.50;;;;;;5071585;28;20032;-64
2022/07/14 02:23:21;;;;;;;2.00;0.85;;;22.00;92.50;;;;;;5086552;28;20098;-67
2022/07/14 02:25:47;;;;;;;1.75;0.90;;;22.00;92.50;;;;;;5066042;28;20040;-66
2022/07/14 02:28:13;;;;;;;1.88;0.70;;;22.00;92.50;;;;;;5067533;28;20036;-67
2022/07/14 02:30:38;;;;;;;0.75;0.75;;;22.00;92.50;;;;;;5072516;28;20095;-60
2022/07/14 02:33:04;;;;;;;1.02;0.80;;;22.10;92.60;;;;;;5072518;28;20048;-66
2022/07/14 02:35:30;;;;;;;3.03;1.20;;;22.00;92.60;;;;;;5071339;28;20470;-66
2022/07/14 02:37:56;;;;;;;0.85;0.80;;;22.00;92.60;;;;;;5071503;28;20048;-66
2022/07/14 02:40:22;;;;;;;0.80;0.80;;;22.00;92.60;;;;;;5072353;28;20048;-66
2022/07/14 02:42:47;;;;;;;1.45;1.25;;;22.00;92.60;;;;;;5072379;28;20040;-67
2022/07/14 02:45:13;;;;;;;0.73;0.73;;;22.00;92.60;;;;;;5072716;28;20777;-66
2022/07/14 02:47:39;;;;;;;0.85;0.85;;;22.00;92.60;;;;;;5088012;28;20465;-67
2022/07/14 02:50:06;;;;;;;1.05;0.80;;;22.00;92.60;;;;;;5071283;28;20139;-64
2022/07/14 02:52:31;;;;;;;2.60;1.00;;;22.00;92.60;;;;;;5072041;28;20515;-66
2022/07/14 02:54:57;;;;;;;1.13;0.80;;;22.00;92.60;;;;;;5070863;28;20052;-64
2022/07/14 02:57:23;;;;;;;0.80;0.80;;;22.00;92.60;;;;;;5072539;28;20043;-66
2022/07/14 02:59:48;;;;;;;0.60;0.60;;;22.00;92.60;;;;;;5071872;28;20128;-65
2022/07/14 03:02:14;;;;;;;1.20;0.80;;;22.00;92.60;;;;;;5072540;28;20448;-66
2022/07/14 03:04:39;;;;;;;2.00;0.68;;;22.00;92.60;;;;;;5070774;28;20396;-66
2022/07/14 03:07:05;;;;;;;1.40;0.70;;;22.00;92.60;;;;;;5086351;28;20040;-65
2022/07/14 03:09:31;;;;;;;0.90;0.65;;;22.00;92.60;;;;;;5071227;28;20462;-66
2022/07/14 03:11:57;;;;;;;0.52;0.52;;;22.00;92.60;;;;;;5071718;28;20517;-64
2022/07/14 03:14:22;;;;;;;0.70;0.70;;;22.00;92.60;;;;;;5072059;28;20123;-66
2022/07/14 03:16:48;;;;;;;1.35;0.80;;;22.00;92.60;;;;;;5070643;28;20445;-66
2022/07/14 03:19:14;;;;;;;0.73;0.70;;;22.00;92.60;;;;;;5071752;28;20498;-67
2022/07/14 03:21:39;;;;;;;0.70;0.70;;;22.00;92.60;;;;;;5070842;28;20385;-66
2022/07/14 03:24:06;;;;;;;0.60;0.60;;;22.00;92.60;;;;;;5068600;28;20521;-67
2022/07/14 03:26:32;;;;;;;1.02;0.80;;;22.00;92.60;;;;;;5071941;28;20056;-66
2022/07/14 03:28:58;;;;;;;1.67;0.60;;;22.00;92.60;;;;;;5071359;28;20056;-67
2022/07/14 03:31:24;;;;;;;0.52;0.50;;;22.00;92.60;;;;;;5071649;28;20048;-67
2022/07/14 03:33:49;;;;;;;0.60;0.60;;;21.90;92.60;;;;;;5071265;28;20095;-65
2022/07/14 03:36:16;;;;;;;1.08;0.65;;;22.00;92.60;;;;;;5070529;28;20041;-67
2022/07/14 03:38:42;;;;;;;0.60;0.60;;;21.90;92.60;;;;;;5069908;28;20477;-65
2022/07/14 03:41:07;;;;;;;0.90;0.73;;;21.90;92.60;;;;;;5071079;28;20080;-66
2022/07/14 03:43:34;;;;;;;0.90;0.40;;;21.90;92.60;;;;;;5071684;28;20461;-67
2022/07/14 03:46:00;;;;;;;2.67;0.60;;;21.90;92.70;;;;;;5070860;28;20036;-67
2022/07/14 03:48:25;;;;;;;1.90;0.68;;;21.90;92.70;;;;;;5071406;28;20123;-67
2022/07/14 03:50:51;;;;;;;0.60;0.60;;;21.90;92.70;;;;;;5070062;28;20048;-67
2022/07/14 03:53:17;;;;;;;0.55;0.55;;;21.90;92.70;;;;;;5070419;28;20044;-67
2022/07/14 03:55:43;;;;;;;0.85;0.77;;;21.90;92.70;;;;;;5069917;28;20079;-67
2022/07/14 03:58:09;;;;;;;1.95;0.60;;;21.90;92.70;;;;;;5070731;28;20060;-66
2022/07/14 04:00:35;;;;;;;0.60;0.60;;;21.90;92.70;;;;;;5070377;28;20048;-66
2022/07/14 04:03:00;;;;;;;0.70;0.70;;;21.90;92.70;;;;;;5070503;28;20049;-66
2022/07/14 04:05:26;;;;;;;0.70;0.70;;;21.90;92.70;;;;;;5069563;28;20144;-65
2022/07/14 04:07:52;;;;;;;2.10;0.60;;;21.90;92.70;;;;;;5070382;28;20051;-63
2022/07/14 04:10:17;;;;;;;0.70;0.70;;;21.90;92.70;;;;;;5070458;28;20052;-66
2022/07/14 04:12:44;;;;;;;0.82;0.70;;;21.90;92.70;;;;;;5069541;28;20045;-65
2022/07/14 04:15:10;;;;;;;1.60;0.77;;;21.90;92.70;;;;;;5070017;28;20036;-67
2022/07/14 04:17:36;;;;;;;0.95;0.73;;;21.90;93.00;;;;;;5070981;28;20037;-67
2022/07/14 04:20:03;;;;;;;0.70;0.70;;;21.90;92.80;;;;;;5069218;28;20052;-65
2022/07/14 04:22:29;;;;;;;0.95;0.50;;;21.90;92.80;;;;;;5069089;28;20044;-66
2022/07/14 04:24:54;;;;;;;1.15;0.65;;;21.90;92.80;;;;;;5069363;28;20170;-66
2022/07/14 04:27:20;;;;;;;2.97;0.88;;;21.90;92.80;;;;;;5070176;28;20052;-66
2022/07/14 04:29:46;;;;;;;0.60;0.60;;;21.90;92.80;;;;;;5070631;28;20048;-66
2022/07/14 04:32:12;;;;;;;1.98;0.70;;;21.90;92.80;;;;;;5069989;28;20871;-66
2022/07/14 04:34:39;;;;;;;0.80;0.80;;;21.90;92.80;;;;;;5069946;28;20753;-65
2022/07/14 04:37:05;;;;;;;0.88;0.88;;;21.90;92.80;;;;;;5068597;28;20478;-63
2022/07/14 04:39:31;;;;;;;1.17;1.02;;;21.90;92.80;;;;;;5051968;28;20570;-66
2022/07/14 04:41:57;;;;;;;0.40;0.40;;;21.90;92.80;;;;;;5049881;28;20052;-67
2022/07/14 04:44:22;;;;;;;0.80;0.70;;;21.90;92.80;;;;;;5050493;28;20037;-67
2022/07/14 04:46:48;;;;;;;0.73;0.60;;;21.90;92.80;;;;;;5063954;28;20077;-65
2022/07/14 04:52:04;;;;;;;0.50;0.50;;;21.90;92.80;;;;;;5068872;28;20052;-66
2022/07/14 04:54:34;;;;;;;0.75;0.75;;;21.90;92.80;;;;;;5069072;28;20385;-66
2022/07/14 04:57:01;;;;;;;1.95;1.02;;;21.90;92.70;;;;;;5069696;28;20045;-66
2022/07/14 04:59:27;;;;;;;0.93;0.50;;;21.90;92.70;;;;;;5070261;28;20052;-66
2022/07/14 05:01:53;;;;;;;0.50;0.50;;;21.90;92.70;;;;;;5069527;28;20067;-60
2022/07/14 05:04:20;;;;;;;0.98;0.60;;;21.90;92.70;;;;;;5069943;28;20046;-66
2022/07/14 05:06:46;;;;;;;1.30;0.60;;;21.90;92.70;;;;;;5068208;28;20375;-66
2022/07/14 05:09:13;;;;;;;0.35;0.35;;;21.90;92.70;;;;;;5068695;28;20206;-65
2022/07/14 05:11:40;;;;;;;0.93;0.60;;;21.90;92.70;;;;;;5068708;28;20045;-66
2022/07/14 05:14:05;;;;;;;0.55;0.55;;;21.90;92.80;;;;;;5069621;28;20087;-66
2022/07/14 05:16:31;;;;;;;0.50;0.50;;;21.90;92.80;;;;;;5069854;28;20123;-67
2022/07/14 05:18:57;;;;;;;0.43;0.43;;;22.00;92.80;;;;;;5067921;28;20080;-66
2022/07/14 05:21:24;;;;;;;1.85;0.73;;;22.00;92.80;;;;;;5068120;28;20036;-67
2022/07/14 05:23:50;;;;;;;1.17;0.57;;;22.00;92.90;;;;;;5068491;28;20495;-66
2022/07/14 05:26:17;;;;;;;1.60;0.80;;;22.00;92.90;;;;;;5069569;28;20377;-67
2022/07/14 05:28:42;;;;;;;0.85;0.70;;;22.00;92.90;;;;;;5069055;28;20048;-66
2022/07/14 05:31:08;;;;;;;0.65;0.60;;;22.00;92.90;;;;;;5069116;28;20036;-65
2022/07/14 05:33:35;;;;;;;0.60;0.57;;;22.00;92.90;;;;;;5069618;28;20079;-66
2022/07/14 05:36:01;;;;;;;2.67;0.90;;;22.00;92.90;;;;;;5068082;28;20042;-66
2022/07/14 05:38:27;;;;;;;0.50;0.50;;;22.00;92.90;;;;;;5068997;28;20052;-66
2022/07/14 05:40:53;;;;;;;0.70;0.70;;;22.00;92.90;;;;;;5069555;28;20472;-67
2022/07/14 05:43:19;;;;;;;1.02;0.75;;;22.00;92.90;;;;;;5069504;28;20041;-66
2022/07/14 05:45:48;;;;;;;1.10;0.77;;;22.00;92.90;;;;;;5069940;28;20041;-66
2022/07/14 05:48:14;;;;;;;1.10;0.50;;;22.00;92.90;;;;;;5068611;28;20041;-67
2022/07/14 05:50:39;;;;;;;1.05;0.80;;;22.00;92.90;;;;;;5068845;28;20074;-66
2022/07/14 05:53:05;;;;;;;0.52;0.50;;;22.00;92.90;;;;;;5068048;28;20044;-67
2022/07/14 05:55:31;;;;;;;0.50;0.50;;;22.00;92.90;;;;;;5069721;28;20037;-66
2022/07/14 05:57:56;;;;;;;0.63;0.60;;;22.00;92.90;;;;;;5069398;28;20063;-60
2022/07/14 06:00:22;;;;;;;0.70;0.63;;;22.00;92.90;;;;;;5069362;28;20044;-66
2022/07/14 06:02:48;;;;;;;1.35;0.80;;;22.10;92.90;;;;;;5069274;28;20557;-67
2022/07/14 06:05:13;;;;;;;0.80;0.60;;;22.10;92.90;;;;;;5067500;28;20048;-67
2022/07/14 06:07:39;;;;;;;1.23;0.55;;;22.10;92.90;;;;;;5067603;28;20040;-67
2022/07/14 06:10:05;;;;;;;0.63;0.63;;;22.10;92.90;;;;;;5068326;28;20106;-66
2022/07/14 06:12:32;;;;;;;0.55;0.55;;;22.10;92.90;;;;;;5069585;28;20091;-66
2022/07/14 06:14:58;;;;;;;0.50;0.50;;;22.10;92.90;;;;;;5069031;28;20485;-61
2022/07/14 06:17:24;;;;;;;1.27;0.60;;;22.10;92.90;;;;;;5069438;28;20048;-66
2022/07/14 06:19:49;;;;;;;0.68;0.60;;;22.10;92.90;;;;;;5069276;28;20044;-67
2022/07/14 06:22:15;;;;;;;1.55;0.82;;;22.10;92.90;;;;;;5068475;28;20040;-67
2022/07/14 06:24:41;;;;;;;1.00;0.90;;;22.10;92.90;;;;;;5072032;28;20055;-67
2022/07/14 06:27:07;;;;;;;1.02;0.68;;;22.10;92.90;;;;;;5072450;28;20135;-67
2022/07/14 06:29:33;;;;;;;1.27;0.60;;;22.10;92.90;;;;;;5073041;28;20131;-67
2022/07/14 06:31:59;;;;;;;1.20;0.70;;;22.10;92.90;;;;;;5071212;28;20127;-60
2022/07/14 06:34:25;;;;;;;1.35;0.32;;;22.10;92.80;;;;;;5072608;28;20049;-66
2022/07/14 06:36:50;;;;;;;1.02;0.80;;;22.10;92.80;;;;;;5071657;28;20080;-67
2022/07/14 06:39:16;;;;;;;1.50;0.55;;;22.10;92.80;;;;;;5070885;28;20770;-65
2022/07/14 06:41:42;;;;;;;0.73;0.68;;;22.10;92.80;;;;;;5072300;28;20036;-65
2022/07/14 06:44:08;;;;;;;0.73;0.65;;;22.10;92.80;;;;;;5071295;28;20040;-66
2022/07/14 06:46:34;;;;;;;0.85;0.85;;;22.10;92.80;;;;;;5072161;28;20052;-66
2022/07/14 06:49:00;;;;;;;1.63;0.80;;;22.10;92.80;;;;;;5072123;28;20049;-60
2022/07/14 06:51:26;;;;;;;0.70;0.57;;;22.10;92.80;;;;;;5071039;28;20378;-66
2022/07/14 06:53:52;;;;;;;3.30;0.88;;;22.10;92.80;;;;;;5071672;28;20041;-67
2022/07/14 06:56:18;;;;;;;1.70;0.57;;;22.10;92.80;;;;;;5071844;28;20040;-68
2022/07/14 06:58:44;;;;;;;0.60;0.60;;;22.10;92.80;;;;;;5067861;28;20048;-70
2022/07/14 07:01:10;;;;;;;0.70;0.50;;;22.10;92.80;;;;;;5066016;28;20102;-69
2022/07/14 07:03:36;;;;;;;2.17;0.77;;;22.10;92.80;;;;;;5072287;28;20343;-68
2022/07/14 07:08:46;;;;;;;0.65;0.60;;;22.10;92.80;;;;;;5071426;28;20136;-70
2022/07/14 07:11:12;;;;;;;1.02;0.88;;;22.10;92.80;;;;;;5067760;28;20124;-68
2022/07/14 07:13:38;;;;;;;1.17;0.52;;;22.10;92.80;;;;;;5066292;28;20047;-68
2022/07/14 07:16:08;;;;;;;0.65;0.52;;;22.10;92.80;;;;;;5069727;28;20455;-61
2022/07/14 07:18:35;;;;;;;0.70;0.50;;;22.10;92.80;;;;;;5068985;28;20059;-69
2022/07/14 07:21:01;;;;;;;1.10;0.60;;;22.10;92.80;;;;;;5070596;28;20041;-68
2022/07/14 07:23:27;;;;;;;0.98;0.55;;;22.10;92.80;;;;;;5067878;28;20115;-67
2022/07/14 07:25:53;;;;;;;1.08;0.93;;;22.10;92.80;;;;;;5069630;28;20103;-68
2022/07/14 07:28:19;;;;;;;0.60;0.60;;;22.10;92.80;;;;;;5066341;28;20102;-68
2022/07/14 07:30:45;;;;;;;0.60;0.60;;;22.10;92.80;;;;;;5069055;28;20044;-65
2022/07/14 07:33:11;;;;;;;0.50;0.50;;;22.10;92.80;;;;;;5065977;28;20045;-66
2022/07/14 07:35:38;;;;;;;0.60;0.50;;;22.10;92.80;;;;;;5067028;28;20025;-65
2022/07/14 07:38:04;;;;;;;0.73;0.60;;;22.10;92.80;;;;;;5067219;28;20047;-60
2022/07/14 07:40:30;;;;;;;0.90;0.52;;;22.10;92.70;;;;;;5069045;28;20040;-65
2022/07/14 07:42:55;;;;;;;1.15;0.55;;;22.10;92.70;;;;;;5067749;28;20418;-63
2022/07/14 07:45:22;;;;;;;1.00;0.60;;;22.10;92.70;;;;;;5065926;28;20033;-66
2022/07/14 07:47:48;;;;;;;1.45;0.70;;;22.10;92.60;;;;;;5062987;28;20089;-66
2022/07/14 07:50:13;;;;;;;1.02;0.85;;;22.10;92.60;;;;;;5067141;28;20371;-67
2022/07/14 07:52:39;;;;;;;0.52;0.35;;;22.10;92.60;;;;;;5055078;28;20044;-66
2022/07/14 07:55:10;;;;;;;0.50;0.50;;;22.10;92.60;;;;;;5057408;28;20033;-60
2022/07/14 07:57:37;;;;;;;0.95;0.50;;;22.10;92.70;;;;;;5066457;28;20047;-66
2022/07/14 08:00:06;;;;;;;0.40;0.40;;;22.10;92.50;;;;;;5068399;28;20157;-62
2022/07/14 08:02:32;;;;;;;1.15;0.63;;;22.10;92.50;;;;;;5066652;28;20079;-60
2022/07/14 08:04:58;;;;;;;0.43;0.43;;;22.10;92.40;;;;;;5061131;28;20087;-61
2022/07/14 08:07:24;;;;;;;2.35;0.82;;;22.10;92.40;;;;;;5067074;28;20041;-63
2022/07/14 08:09:49;;;;;;;8.98;0.90;;;22.10;91.90;;;;;;5061113;28;20064;-63
2022/07/14 08:12:15;;;;;;;2.33;0.50;;;22.10;91.30;;;;;;5060734;28;20063;-63
2022/07/14 08:14:51;;;;;;;9.23;1.42;;;21.90;90.70;;;;;;5051144;28;20041;-64
2022/07/14 08:17:18;;;;;;;3.75;1.48;;;21.80;90.30;;;;;;5064688;28;20049;-64
2022/07/14 08:19:45;;;;;;;3.90;0.90;;;21.70;87.40;;;;;;5050838;28;20049;-66
2022/07/14 08:22:10;;;;;;;2.70;1.13;;;21.60;90.00;;;;;;5051989;28;20052;-65
2022/07/14 08:24:36;;;;;;;2.58;1.20;;;21.40;86.60;;;;;;5048821;28;20045;-63
2022/07/14 08:27:03;;;;;;;4.45;0.85;;;21.40;89.10;;;;;;5064891;28;20398;-63
2022/07/14 08:29:28;;;;;;;3.40;1.00;;;21.40;88.50;;;;;;5070117;28;20119;-63
2022/07/14 08:31:54;;;;;;;3.20;0.90;;;21.40;88.00;;;;;;5070656;28;20124;-64
2022/07/14 08:34:20;;;;;;;10.13;2.92;;;21.30;87.40;;;;;;5062287;28;20487;-64
2022/07/14 08:36:45;;;;;;;12.43;3.17;;;21.30;87.40;;;;;;5064891;28;20041;-64
2022/07/14 08:39:11;;;;;;;13.15;2.92;;;21.30;87.10;;;;;;5054341;28;20143;-64
2022/07/14 08:41:38;;;;;;;5.30;1.55;;;21.30;86.80;;;;;;5050988;28;20130;-64
2022/07/14 08:44:04;;;;;;;1.38;1.00;;;21.30;86.60;;;;;;5068234;28;20059;-64
2022/07/14 08:46:36;;;;;;;4.82;1.00;;;21.20;86.60;;;;;;5060264;28;20133;-63
2022/07/14 08:49:07;;;;;;;2.15;0.70;;;21.20;86.60;;;;;;5064560;28;20048;-63
2022/07/14 08:51:36;;;;;;;2.35;0.75;;;21.30;86.40;;;;;;5058319;28;20520;-62
2022/07/14 08:54:03;;;;;;;2.75;1.08;;;21.30;86.30;;;;;;5054063;28;20052;-63
2022/07/14 08:56:30;;;;;;;5.43;1.13;;;21.30;85.90;;;;;;5063446;28;20087;-65
2022/07/14 08:58:56;;;;;;;1.20;0.70;;;21.40;85.80;;;;;;5059592;28;20146;-67
2022/07/14 09:01:22;;;;;;;1.88;0.68;;;21.30;85.70;;;;;;5055035;28;20056;-67
2022/07/14 09:03:49;;;;;;;;;;;21.30;85.70;;;;;;5050940;28;20385;-67
2022/07/14 09:06:40;;;;;;;;;;;21.40;85.20;;;;;;5056837;28;19959;-66
2022/07/14 09:09:06;;;;;;;2.75;0.70;;;21.40;85.30;;;;;;5053355;28;19917;-67
2022/07/14 09:11:31;;;;;;;;;;;21.40;86.00;;;;;;5050580;28;20060;-66
2022/07/14 09:14:09;;;;;;;2.55;0.75;;;21.40;85.30;;;;;;5049337;28;19946;-66
2022/07/14 09:16:35;;;;;;;1.95;0.57;;;21.50;85.80;;;;;;5049949;28;20045;-66
2022/07/14 09:19:10;;;;;;;;;;;21.50;85.90;;;;;;5050937;28;20098;-65
2022/07/14 09:21:43;;;;;;;4.90;1.33;;;21.50;85.50;;;;;;5049324;28;19931;-67
2022/07/14 09:24:10;;;;;;;0.60;0.60;;;21.50;86.00;;;;;;5049784;28;20053;-66
2022/07/14 09:26:48;;;;;;;1.88;0.82;;;21.60;85.90;;;;;;5059141;28;20044;-67
2022/07/14 09:29:23;;;;;;;1.45;0.77;;;21.60;85.70;;;;;;5070210;28;20472;-61
2022/07/14 09:31:49;;;;;;;3.05;0.98;;;21.60;85.70;;;;;;5070410;28;20040;-66
2022/07/14 09:34:32;;;;;;;0.65;0.60;;;21.60;85.80;;;;;;5052225;28;20053;-63
2022/07/14 09:37:12;;;;;;;2.45;0.60;;;21.60;85.60;;;;;;5069322;28;20044;-67
2022/07/14 09:39:50;;;;;;;1.17;0.50;;;21.60;85.50;;;;;;5068800;28;20052;-64
2022/07/14 09:42:16;;;;;;;2.10;0.60;;;21.70;85.00;;;;;;5069527;28;20036;-66
2022/07/14 09:44:42;;;;;;;2.15;0.70;;;21.70;85.20;;;;;;5070092;28;20056;-65
2022/07/14 09:47:07;;;;;;;5.47;1.35;;;21.70;85.10;;;;;;5070090;28;20063;-66
2022/07/14 09:49:36;;;;;;;4.53;1.33;;;21.80;85.10;;;;;;5069382;28;20052;-68
2022/07/14 09:52:04;;;;;;;2.72;1.08;;;21.80;85.10;;;;;;5068888;28;20148;-72
2022/07/14 09:54:50;;;;;;;7.88;1.10;;;21.80;85.10;;;;;;5068849;28;20087;-72
2022/07/14 09:57:21;;;;;;;3.95;0.77;;;21.90;85.10;;;;;;5070716;28;20099;-63
2022/07/14 09:59:53;;;;;;;2.42;0.60;;;21.90;85.10;;;;;;5074177;28;20040;-74
2022/07/14 10:02:29;;;;;;;4.63;0.98;;;21.90;85.10;;;;;;5070958;28;20036;-71
2022/07/14 10:05:01;;;;;;;4.00;0.80;;;22.00;85.10;;;;;;5070741;28;20036;-73
2022/07/14 10:07:29;;;;;;;2.08;0.90;;;22.00;85.10;;;;;;5072570;28;20051;-73
2022/07/14 10:10:01;;;;;;;1.42;0.77;;;22.00;85.10;;;;;;5072510;28;20044;-70
2022/07/14 10:12:28;;;;;;;5.68;0.70;;;22.10;85.20;;;;;;5068996;28;20115;-73
2022/07/14 10:14:54;;;;;;;4.78;0.77;;;22.10;85.10;;;;;;5071932;28;20044;-74
2022/07/14 10:17:21;;;;;;;2.72;1.10;;;22.10;85.10;;;;;;5072354;28;20489;-73
2022/07/14 10:19:48;;;;;;;4.22;0.80;;;22.10;85.10;;;;;;5073215;28;20496;-72
2022/07/14 10:22:14;;;;;;;3.55;0.90;;;22.10;85.10;;;;;;5071620;28;20052;-74
2022/07/14 10:24:40;;;;;;;1.98;0.90;;;22.20;85.20;;;;;;5072100;28;20123;-74
2022/07/14 10:27:07;;;;;;;1.45;0.50;;;22.10;85.10;;;;;;5073413;28;20445;-74
2022/07/14 10:29:33;;;;;;;0.40;0.40;;;22.20;85.20;;;;;;5072822;28;20090;-74
2022/07/14 10:31:58;;;;;;;1.30;0.60;;;22.20;85.20;;;;;;5073267;28;20539;-74
2022/07/14 10:34:36;;;;;;;1.67;0.60;;;22.20;85.20;;;;;;5072791;28;20086;-74
2022/07/14 10:37:04;;;;;;;2.08;0.60;;;22.20;85.20;;;;;;5069827;28;20042;-73
2022/07/14 10:39:36;;;;;;;2.35;0.70;;;22.20;85.20;;;;;;5058894;28;20409;-72
2022/07/14 10:42:26;;;;;;;2.72;0.63;;;22.20;85.20;;;;;;5069197;28;20036;-68
2022/07/14 10:44:52;;;;;;;1.67;0.40;;;22.20;85.20;;;;;;5055985;28;20040;-75
2022/07/14 10:47:20;;;;;;;1.35;0.90;;;22.20;85.30;;;;;;5062759;28;20044;-74
2022/07/14 10:50:10;;;;;;;2.35;0.68;;;22.20;85.30;;;;;;5069464;28;20469;-74
2022/07/14 10:52:49;;;;;;;1.65;0.55;;;22.20;85.30;;;;;;5061387;28;20037;-74
2022/07/14 10:55:21;;;;;;;1.15;0.50;;;22.20;85.30;;;;;;5054403;28;20076;-74
2022/07/14 10:58:07;;;;;;;0.50;0.50;;;22.20;85.40;;;;;;5061587;28;20045;-74
2022/07/14 11:00:45;;;;;;;1.33;0.52;;;22.30;85.50;;;;;;5049113;28;20051;-73
2022/07/14 11:03:19;;;;;;;1.38;0.63;;;22.20;85.50;;;;;;5061632;28;20048;-69
2022/07/14 11:06:03;;;;;;;1.65;0.68;;;22.30;85.50;;;;;;5062265;28;20037;-74
2022/07/14 11:08:33;;;;;;;0.68;0.30;;;22.30;85.50;;;;;;5056321;28;20509;-69
2022/07/14 11:11:00;;;;;;;3.50;0.50;;;22.30;85.60;;;;;;5063885;28;20089;-69
2022/07/14 11:13:27;;;;;;;1.45;0.80;;;22.20;85.50;;;;;;5070046;28;20440;-71
2022/07/14 11:15:55;;;;;;;1.77;0.70;;;22.30;85.60;;;;;;5067930;28;20040;-70
2022/07/14 11:18:21;;;;;;;0.65;0.50;;;22.30;85.70;;;;;;5070241;28;20044;-74
2022/07/14 11:20:50;;;;;;;1.08;0.70;;;22.30;85.70;;;;;;5067179;28;20500;-72
2022/07/14 11:23:21;;;;;;;2.28;0.50;;;22.30;85.70;;;;;;5057339;28;20184;-69
2022/07/14 11:25:51;;;;;;;1.25;0.55;;;22.30;85.70;;;;;;5057303;28;20489;-70
2022/07/14 11:28:48;;;;;;;0.57;0.30;;;22.30;85.70;;;;;;5058690;28;20435;-70
2022/07/14 11:31:16;;;;;;;0.80;0.63;;;22.30;85.80;;;;;;5065021;28;20052;-70
2022/07/14 11:36:40;;;;;;;4.05;0.63;;;22.30;85.80;;;;;;5050743;28;20469;-66
2022/07/14 11:39:20;;;;;;;1.02;0.50;;;22.30;85.80;;;;;;5054932;28;20548;-71
2022/07/14 11:41:47;;;;;;;3.30;0.50;;;22.30;85.90;;;;;;5062463;28;20048;-71
2022/07/14 11:44:40;;;;;;;1.25;0.60;;;22.30;85.90;;;;;;5059586;28;20440;-69
2022/07/14 11:47:06;;;;;;;1.20;0.32;;;22.30;85.90;;;;;;5060921;28;20078;-69
2022/07/14 11:49:33;;;;;;;1.70;0.68;;;22.30;85.90;;;;;;5058477;28;20072;-70
2022/07/14 11:52:00;;;;;;;1.10;0.30;;;22.30;86.00;;;;;;5050946;28;20045;-67
2022/07/14 11:54:26;;;;;;;0.77;0.40;;;22.30;86.00;;;;;;5050593;28;20040;-71
2022/07/14 11:57:08;;;;;;;0.52;0.52;;;22.30;85.30;;;;;;5051370;28;20044;-69
2022/07/14 11:59:35;;;;;;;0.38;0.38;;;22.30;84.60;;;;;;5051172;28;20080;-70
2022/07/14 12:02:15;;;;;;;2.22;0.55;;;22.30;84.80;;;;;;5051480;28;20049;-72
2022/07/14 12:04:57;;;;;;;0.40;0.40;;;22.30;84.60;;;;;;5062974;28;20354;-70
2022/07/14 12:07:25;;;;;;;0.63;0.45;;;22.20;84.50;;;;;;5057695;28;20090;-72
2022/07/14 12:09:51;;;;;;;2.42;0.50;;;22.30;84.60;;;;;;5055077;28;20048;-72
2022/07/14 12:12:19;;;;;;;0.70;0.63;;;22.30;84.60;;;;;;5051646;28;20040;-72
2022/07/14 12:14:45;;;;;;;2.00;0.60;;;22.30;84.60;;;;;;5063400;28;20103;-72
2022/07/14 12:17:11;;;;;;;0.32;0.30;;;22.30;84.60;;;;;;5051174;28;20374;-71
2022/07/14 12:19:37;;;;;;;3.15;0.73;;;22.30;85.20;;;;;;5050024;28;20093;-68
2022/07/14 12:22:05;;;;;;;1.08;0.50;;;22.30;84.60;;;;;;5050326;28;20036;-73
2022/07/14 12:24:31;;;;;;;0.82;0.40;;;22.30;84.70;;;;;;5048449;28;20661;-63
2022/07/14 12:27:04;;;;;;;2.97;0.50;;;22.30;84.70;;;;;;5063931;28;20040;-70
2022/07/14 12:29:30;;;;;;;2.05;0.50;;;22.30;84.70;;;;;;5070935;28;20525;-66
2022/07/14 12:32:00;;;;;;;1.38;0.50;;;22.30;84.70;;;;;;5070504;28;20040;-70
2022/07/14 12:34:27;;;;;;;0.45;0.45;;;22.30;84.70;;;;;;5053222;28;20083;-71
2022/07/14 12:36:56;;;;;;;0.57;0.30;;;22.30;84.80;;;;;;5049193;28;20044;-72
2022/07/14 12:39:24;;;;;;;2.97;0.45;;;22.30;84.80;;;;;;5050010;28;20052;-73
2022/07/14 12:41:51;;;;;;;1.20;0.50;;;22.30;84.80;;;;;;5059176;28;20048;-73
2022/07/14 12:44:17;;;;;;;2.38;0.50;;;22.30;84.80;;;;;;5068795;28;20036;-72
2022/07/14 12:46:43;;;;;;;3.92;0.68;;;22.30;84.80;;;;;;5062191;28;20678;-73
2022/07/14 12:49:09;;;;;;;1.45;0.70;;;22.30;84.90;;;;;;5071049;28;20481;-70
2022/07/14 12:51:40;;;;;;;0.47;0.47;;;22.30;84.90;;;;;;5069513;28;20052;-65
2022/07/14 12:54:18;;;;;;;0.47;0.47;;;22.30;84.90;;;;;;5070174;28;20052;-73
2022/07/14 12:56:44;;;;;;;0.55;0.52;;;22.30;84.90;;;;;;5070281;28;20043;-73
2022/07/14 12:59:15;;;;;;;0.77;0.52;;;22.30;84.90;;;;;;5070893;28;20041;-72
2022/07/14 13:01:52;;;;;;;13.00;1.52;;;22.30;84.90;;;;;;5069907;28;20056;-67
2022/07/14 13:04:47;;;;;;;;;;;22.30;83.00;;;;;;5071279;28;20154;-65